Time;durP1;ratioP1;P1;durP2;ratioP2;P2;SDS_P1;SDS_P2;PMS_P1;PMS_P2;Temp;Humidity;BMP_temperature;BMP_pressure;BME280_temperature;BME280_humidity;BME280_pressure;Samples;Min_cycle;Max_cycle;Signal;HPM_P1;HPM_P2
2022/01/05 00:02:16;;;;;;;30.27;16.70;;;;;;;7.06;48.64;93259.28;5008909;28;20626;-73
2022/01/05 00:04:41;;;;;;;21.70;13.45;;;;;;;7.12;48.69;93270.50;5014198;28;20031;-75
2022/01/05 00:07:07;;;;;;;27.90;15.60;;;;;;;6.95;48.99;93246.59;5006080;28;20102;-74
2022/01/05 00:09:33;;;;;;;27.33;16.02;;;;;;;7.16;49.16;93266.16;5014580;28;20057;-75
2022/01/05 00:11:59;;;;;;;27.52;17.40;;;;;;;6.98;48.86;93211.66;5011434;28;20171;-75
2022/01/05 00:14:24;;;;;;;29.30;17.35;;;;;;;7.18;48.56;93242.84;5014050;28;20485;-75
2022/01/05 00:16:50;;;;;;;28.73;16.98;;;;;;;7.17;48.46;93246.56;5022289;28;20995;-74
2022/01/05 00:19:15;;;;;;;24.42;14.07;;;;;;;6.84;49.30;93246.88;5020713;28;20084;-74
2022/01/05 00:21:40;;;;;;;20.90;12.88;;;;;;;6.88;49.94;93272.72;5015657;28;20579;-74
2022/01/05 00:24:08;;;;;;;15.95;11.32;;;;;;;6.79;49.19;93220.59;5021298;28;20037;-75
2022/01/05 00:26:34;;;;;;;24.17;13.15;;;;;;;7.16;48.62;93245.00;5018902;28;20512;-74
2022/01/05 00:28:59;;;;;;;24.15;13.23;;;;;;;7.19;48.95;93239.13;5020821;28;20507;-75
2022/01/05 00:31:25;;;;;;;20.83;11.85;;;;;;;7.34;48.35;93253.81;5011946;28;20045;-75
2022/01/05 00:33:51;;;;;;;23.42;11.77;;;;;;;7.35;47.85;93266.72;5014390;28;20156;-74
2022/01/05 00:36:17;;;;;;;21.80;12.43;;;;;;;7.10;48.61;93262.09;5006567;28;20151;-74
2022/01/05 00:38:43;;;;;;;21.27;12.07;;;;;;;7.16;48.75;93276.75;5020662;28;20278;-75
2022/01/05 00:41:08;;;;;;;22.02;11.63;;;;;;;6.96;48.82;93250.81;5030124;28;20217;-74
2022/01/05 00:43:34;;;;;;;19.45;11.18;;;;;;;7.07;48.61;93257.41;5018990;28;20469;-74
2022/01/05 00:45:59;;;;;;;21.35;9.82;;;;;;;7.11;48.51;93268.94;5026653;28;20057;-75
2022/01/05 00:48:25;;;;;;;19.60;10.40;;;;;;;7.23;48.28;93274.44;5026181;28;20456;-75
2022/01/05 00:50:50;;;;;;;23.15;11.50;;;;;;;7.23;48.13;93266.50;5015796;28;20125;-74
2022/01/05 00:53:16;;;;;;;20.20;9.75;;;;;;;6.85;48.05;93211.44;5024581;28;20215;-74
2022/01/05 00:55:41;;;;;;;23.80;10.43;;;;;;;6.80;48.78;93240.63;5014500;28;20044;-75
2022/01/05 00:58:07;;;;;;;18.52;10.25;;;;;;;7.05;48.31;93247.13;5015425;28;20052;-75
2022/01/05 01:00:32;;;;;;;17.30;9.88;;;;;;;6.99;48.75;93244.94;5011202;28;20540;-74
2022/01/05 01:02:58;;;;;;;19.30;10.48;;;;;;;6.86;48.97;93257.94;5013247;28;20047;-73
2022/01/05 01:05:23;;;;;;;21.02;11.38;;;;;;;6.97;49.05;93249.75;5027006;28;20041;-74
2022/01/05 01:07:49;;;;;;;19.98;10.85;;;;;;;7.09;48.69;93253.38;5017881;28;20059;-75
2022/01/05 01:10:15;;;;;;;20.75;11.15;;;;;;;7.15;48.76;93241.56;5012559;28;20043;-75
2022/01/05 01:12:40;;;;;;;18.27;10.32;;;;;;;7.17;48.38;93226.19;5018941;28;20030;-75
2022/01/05 01:15:08;;;;;;;20.13;11.48;;;;;;;7.19;48.53;93220.63;5015001;28;20041;-74
2022/01/05 01:17:34;;;;;;;15.70;10.18;;;;;;;7.33;48.38;93233.72;5019148;28;20687;-75
2022/01/05 01:20:00;;;;;;;21.15;11.88;;;;;;;7.49;48.25;93240.13;5014870;28;20032;-75
2022/01/05 01:22:28;;;;;;;18.27;9.93;;;;;;;7.56;48.24;93238.63;5020089;28;20726;-74
2022/01/05 01:24:53;;;;;;;19.65;10.73;;;;;;;7.47;47.90;93235.16;5009241;28;20033;-74
2022/01/05 01:27:19;;;;;;;17.33;10.05;;;;;;;7.32;48.28;93205.72;5011701;28;20061;-74
2022/01/05 01:29:44;;;;;;;17.73;10.30;;;;;;;7.38;47.96;93218.50;5016462;28;20435;-75
2022/01/05 01:32:10;;;;;;;17.90;9.68;;;;;;;7.67;47.65;93239.91;5023202;28;20104;-75
2022/01/05 01:34:39;;;;;;;19.48;9.05;;;;;;;7.77;47.53;93248.66;5018697;28;20132;-73
2022/01/05 01:37:04;;;;;;;19.58;9.50;;;;;;;7.75;47.47;93241.03;5028341;28;20037;-75
2022/01/05 01:39:30;;;;;;;24.35;10.13;;;;;;;7.78;46.88;93232.44;5011139;28;20041;-74
2022/01/05 01:41:55;;;;;;;17.27;11.43;;;;;;;7.79;47.17;93234.03;5017963;28;20067;-74
2022/01/05 01:44:21;;;;;;;19.83;11.38;;;;;;;7.62;47.28;93203.00;5002994;28;20081;-73
2022/01/05 01:46:46;;;;;;;22.05;10.30;;;;;;;7.82;46.86;93225.47;5029999;28;20033;-74
2022/01/05 01:49:12;;;;;;;19.70;9.45;;;;;;;7.86;47.01;93217.69;5018542;28;20037;-74
2022/01/05 01:51:37;;;;;;;19.52;9.35;;;;;;;7.82;47.16;93222.03;5016317;28;20045;-75
2022/01/05 01:54:10;;;;;;;17.55;10.55;;;;;;;7.79;47.24;93220.78;5023412;28;20051;-73
2022/01/05 01:56:36;;;;;;;20.55;9.77;;;;;;;7.76;46.79;93204.75;5028279;28;20041;-74
2022/01/05 01:59:03;;;;;;;20.40;10.93;;;;;;;7.94;46.64;93222.97;5022277;28;20029;-74
2022/01/05 02:01:29;;;;;;;22.13;9.73;;;;;;;7.63;46.98;93220.41;5019242;28;20032;-74
2022/01/05 02:03:54;;;;;;;26.00;14.60;;;;;;;6.84;48.63;93223.09;5022515;28;20045;-73
2022/01/05 02:06:20;;;;;;;23.00;13.25;;;;;;;7.07;48.36;93201.88;4997972;28;20090;-73
2022/01/05 02:08:45;;;;;;;24.48;13.02;;;;;;;7.29;47.88;93225.59;5016697;28;20617;-75
2022/01/05 02:11:12;;;;;;;26.40;14.13;;;;;;;7.31;47.72;93226.09;5016024;28;20021;-75
2022/01/05 02:13:38;;;;;;;28.83;14.52;;;;;;;7.33;47.26;93196.69;5016868;28;20051;-74
2022/01/05 02:16:04;;;;;;;23.63;12.30;;;;;;;7.36;47.78;93212.72;5014312;28;20516;-74
2022/01/05 02:21:03;;;;;;;19.77;11.48;;;;;;;7.37;48.22;93208.22;5010005;28;20052;-73
2022/01/05 02:23:28;;;;;;;18.15;9.70;;;;;;;7.46;48.11;93216.94;5013711;28;20047;-74
2022/01/05 02:25:54;;;;;;;17.58;10.20;;;;;;;7.44;47.82;93198.72;5016619;28;20037;-74
2022/01/05 02:28:20;;;;;;;20.33;9.32;;;;;;;7.51;47.83;93214.94;5005935;28;20045;-75
2022/01/05 02:30:49;;;;;;;17.60;8.43;;;;;;;7.31;47.96;93212.84;5013142;28;20044;-75
2022/01/05 02:33:15;;;;;;;18.05;9.93;;;;;;;6.96;48.86;93200.59;5012615;28;20043;-75
2022/01/05 02:35:40;;;;;;;14.77;9.60;;;;;;;6.39;50.02;93184.59;5012655;28;20092;-74
2022/01/05 02:38:06;;;;;;;16.52;9.90;;;;;;;6.11;51.49;93210.34;5011710;28;20041;-75
2022/01/05 02:40:33;;;;;;;15.25;8.40;;;;;;;6.68;50.08;93187.56;5005212;28;20128;-73
2022/01/05 02:42:59;;;;;;;20.05;9.10;;;;;;;6.59;50.22;93189.38;4994647;28;20743;-75
2022/01/05 02:45:25;;;;;;;16.90;9.85;;;;;;;6.66;49.98;93179.16;5015056;28;20040;-74
2022/01/05 02:47:50;;;;;;;13.70;8.35;;;;;;;7.11;49.12;93202.81;5024262;28;20094;-74
2022/01/05 02:50:16;;;;;;;15.50;8.32;;;;;;;7.14;48.49;93183.72;5007724;28;20017;-74
2022/01/05 02:52:42;;;;;;;13.07;8.48;;;;;;;7.33;48.50;93192.19;5014409;28;20847;-74
2022/01/05 02:55:09;;;;;;;20.45;9.38;;;;;;;7.43;48.06;93186.59;5010550;28;20156;-75
2022/01/05 02:57:35;;;;;;;13.00;7.07;;;;;;;7.20;47.86;93137.53;5015012;28;20038;-74
2022/01/05 03:00:01;;;;;;;16.05;8.77;;;;;;;7.57;47.78;93184.63;4998225;28;20048;-75
2022/01/05 03:02:26;;;;;;;14.15;7.28;;;;;;;7.67;47.79;93180.88;5021009;28;20045;-74
2022/01/05 03:04:53;;;;;;;16.50;9.60;;;;;;;7.54;47.57;93161.41;5014863;28;20925;-75
2022/01/05 03:07:18;;;;;;;17.60;10.10;;;;;;;7.65;47.14;93173.25;5017814;28;20040;-75
2022/01/05 03:09:44;;;;;;;21.20;10.40;;;;;;;7.70;47.23;93191.63;5009994;28;20611;-75
2022/01/05 03:12:10;;;;;;;18.60;10.10;;;;;;;7.68;47.02;93180.56;5007880;28;20860;-74
2022/01/05 03:14:36;;;;;;;16.77;8.27;;;;;;;7.68;47.12;93185.84;5012557;28;20033;-73
2022/01/05 03:17:06;;;;;;;16.73;8.80;;;;;;;7.62;47.07;93187.13;5020630;28;20029;-73
2022/01/05 03:19:32;;;;;;;13.85;9.43;;;;;;;7.51;47.13;93175.25;5022080;28;20041;-73
2022/01/05 03:21:57;;;;;;;25.85;11.68;;;;;;;7.70;46.81;93188.19;5013568;28;20037;-74
2022/01/05 03:24:23;;;;;;;18.42;10.13;;;;;;;7.54;47.10;93184.44;4993742;28;20432;-74
2022/01/05 03:26:49;;;;;;;16.33;9.60;;;;;;;7.65;46.61;93180.41;5010667;28;20040;-74
2022/01/05 03:29:14;;;;;;;19.55;9.43;;;;;;;7.51;46.74;93182.41;5011603;28;20029;-74
2022/01/05 03:31:39;;;;;;;15.27;9.90;;;;;;;7.53;46.49;93167.78;5010266;28;20021;-75
2022/01/05 03:34:06;;;;;;;17.58;8.60;;;;;;;7.40;47.05;93165.25;5020283;28;20267;-73
2022/01/05 03:36:32;;;;;;;11.57;8.57;;;;;;;7.43;46.96;93178.69;4998113;28;20053;-74
2022/01/05 03:38:57;;;;;;;15.48;8.07;;;;;;;7.23;47.55;93192.47;5004129;28;20854;-75
2022/01/05 03:41:22;;;;;;;16.55;10.98;;;;;;;7.09;47.57;93165.34;5018899;28;20554;-75
2022/01/05 03:43:52;;;;;;;16.60;9.77;;;;;;;7.08;47.78;93169.06;5007881;28;20065;-73
2022/01/05 03:46:17;;;;;;;17.65;9.63;;;;;;;7.15;47.52;93179.97;5013375;28;20033;-74
2022/01/05 03:48:43;;;;;;;19.33;8.02;;;;;;;6.84;48.06;93175.53;5013541;28;20049;-74
2022/01/05 03:51:08;;;;;;;22.48;11.75;;;;;;;6.70;48.28;93153.69;5018204;28;20083;-74
2022/01/05 03:53:33;;;;;;;16.90;9.65;;;;;;;6.86;48.63;93183.91;5025888;28;20052;-75
2022/01/05 03:55:59;;;;;;;22.13;10.93;;;;;;;6.86;48.36;93183.91;5010407;28;20516;-74
2022/01/05 03:58:24;;;;;;;23.58;10.95;;;;;;;6.77;48.50;93158.53;5018024;28;20150;-73
2022/01/05 04:00:51;;;;;;;16.52;8.38;;;;;;;6.85;48.14;93169.13;5011882;28;20040;-75
2022/01/05 04:03:17;;;;;;;18.10;9.48;;;;;;;6.99;48.32;93182.28;5021898;28;20527;-74
2022/01/05 04:05:43;;;;;;;18.10;9.77;;;;;;;6.58;48.85;93171.97;4997563;28;20724;-74
2022/01/05 04:08:08;;;;;;;17.27;8.02;;;;;;;6.09;50.68;93180.00;5021353;28;20042;-75
2022/01/05 04:10:34;;;;;;;17.50;8.80;;;;;;;6.24;50.21;93159.34;5014876;28;20227;-74
2022/01/05 04:13:00;;;;;;;19.83;7.95;;;;;;;6.43;49.71;93175.78;5010567;28;20499;-74
2022/01/05 04:15:25;;;;;;;14.27;6.95;;;;;;;6.30;49.99;93152.88;4993549;28;20103;-75
2022/01/05 04:17:50;;;;;;;11.52;7.32;;;;;;;6.42;49.31;93129.31;5018181;28;20129;-75
2022/01/05 04:20:17;;;;;;;13.10;8.10;;;;;;;6.73;49.23;93162.88;5021849;28;20393;-74
2022/01/05 04:22:43;;;;;;;18.75;8.48;;;;;;;6.79;48.69;93162.44;5022904;28;20029;-74
2022/01/05 04:25:10;;;;;;;12.32;7.80;;;;;;;6.76;49.00;93156.97;5017132;28;20044;-74
2022/01/05 04:27:35;;;;;;;15.23;7.68;;;;;;;6.63;48.78;93131.44;5020613;28;20092;-74
2022/01/05 04:30:01;;;;;;;13.05;8.80;;;;;;;6.82;48.77;93151.25;5016201;28;20066;-74
2022/01/05 04:32:27;;;;;;;16.00;7.78;;;;;;;6.84;48.92;93143.03;5020620;28;20072;-74
2022/01/05 04:34:52;;;;;;;14.02;7.80;;;;;;;6.99;48.38;93149.75;5018456;28;20739;-73
2022/01/05 04:37:19;;;;;;;13.57;7.75;;;;;;;6.74;48.25;93132.72;5014969;28;20524;-74
2022/01/05 04:39:45;;;;;;;14.40;8.27;;;;;;;6.62;48.97;93146.50;5019870;28;20328;-73
2022/01/05 04:42:13;;;;;;;11.60;8.55;;;;;;;6.65;49.17;93167.00;5007540;28;20044;-73
2022/01/05 04:44:39;;;;;;;18.60;9.73;;;;;;;6.18;49.83;93136.00;5020365;28;20044;-73
2022/01/05 04:47:04;;;;;;;13.90;7.93;;;;;;;6.42;49.54;93168.94;5024629;28;20029;-75
2022/01/05 04:49:30;;;;;;;15.43;7.50;;;;;;;6.29;49.93;93158.44;5020274;28;20146;-74
2022/01/05 04:51:56;;;;;;;12.90;7.43;;;;;;;6.11;50.24;93172.59;5012259;28;20103;-74
2022/01/05 04:54:21;;;;;;;13.25;7.45;;;;;;;5.84;50.89;93139.16;5020689;28;20048;-76
2022/01/05 04:56:47;;;;;;;16.80;7.32;;;;;;;6.00;51.15;93179.97;5008007;28;20510;-75
2022/01/05 04:59:17;;;;;;;16.27;6.72;;;;;;;5.88;51.11;93177.06;5023138;28;20033;-74
2022/01/05 05:01:42;;;;;;;14.45;6.57;;;;;;;6.02;51.01;93177.03;5007234;28;20028;-74
2022/01/05 05:04:17;;;;;;;16.13;7.47;;;;;;;6.18;50.63;93186.16;5021295;28;20072;-73
2022/01/05 05:06:42;;;;;;;;;;;;;;;6.30;50.09;93187.19;5024539;28;20037;-75
2022/01/05 05:09:08;;;;;;;12.23;6.40;;;;;;;6.21;50.04;93175.81;5026309;28;20405;-75
2022/01/05 05:11:34;;;;;;;12.65;6.82;;;;;;;6.21;49.81;93175.03;5006452;28;20933;-74
2022/01/05 05:13:59;;;;;;;11.48;7.00;;;;;;;6.28;49.25;93188.56;5026089;28;20621;-74
2022/01/05 05:16:25;;;;;;;12.93;6.35;;;;;;;6.42;49.45;93203.25;5014200;28;20235;-74
2022/01/05 05:18:51;;;;;;;16.20;7.82;;;;;;;6.22;49.78;93189.75;5014658;28;20069;-74
2022/01/05 05:21:17;;;;;;;13.43;7.53;;;;;;;6.24;50.12;93198.16;5007442;28;20076;-73
2022/01/05 05:23:43;;;;;;;16.20;8.55;;;;;;;6.28;49.91;93204.41;5023524;28;20119;-74
2022/01/05 05:26:08;;;;;;;13.20;7.18;;;;;;;6.18;49.61;93188.81;5020643;28;20479;-75
2022/01/05 05:28:34;;;;;;;13.27;7.38;;;;;;;6.34;49.03;93187.38;5017634;28;20082;-75
2022/01/05 05:30:59;;;;;;;15.25;8.30;;;;;;;6.26;49.26;93186.22;5005680;28;20296;-75
2022/01/05 05:33:24;;;;;;;12.40;7.45;;;;;;;6.40;49.27;93212.59;5021033;28;20501;-74
2022/01/05 05:35:50;;;;;;;14.63;8.48;;;;;;;6.42;49.15;93215.69;5004732;28;20052;-74
2022/01/05 05:38:15;;;;;;;9.73;6.45;;;;;;;6.38;49.31;93204.94;5017416;28;20035;-75
2022/01/05 05:40:42;;;;;;;15.07;8.00;;;;;;;6.43;49.30;93196.91;5004517;28;20037;-75
2022/01/05 05:43:20;;;;;;;12.70;6.32;;;;;;;6.51;49.04;93208.59;5008058;28;20083;-74
2022/01/05 05:45:45;;;;;;;11.73;6.47;;;;;;;6.47;48.77;93209.50;5000520;28;20037;-74
2022/01/05 05:48:16;;;;;;;13.80;7.07;;;;;;;6.47;49.29;93210.28;5019523;28;20037;-74
2022/01/05 05:50:42;;;;;;;13.52;7.75;;;;;;;6.49;48.99;93205.50;5015368;28;20080;-74
2022/01/05 05:53:07;;;;;;;16.67;8.25;;;;;;;6.48;48.90;93188.06;5015468;28;20139;-73
2022/01/05 05:55:33;;;;;;;14.77;8.30;;;;;;;6.59;48.88;93202.59;4999252;28;20037;-74
2022/01/05 05:57:59;;;;;;;17.25;9.02;;;;;;;6.70;49.07;93217.09;5015739;28;20045;-74
2022/01/05 06:00:24;;;;;;;18.88;9.85;;;;;;;6.71;48.61;93217.88;4999946;28;20400;-74
2022/01/05 06:02:50;;;;;;;17.58;9.88;;;;;;;6.67;48.71;93206.34;5012746;28;20037;-74
2022/01/05 06:05:16;;;;;;;16.27;10.15;;;;;;;6.58;48.54;93201.03;5017806;28;20029;-75
2022/01/05 06:07:41;;;;;;;23.77;10.88;;;;;;;6.70;48.13;93195.94;5019650;28;20031;-75
2022/01/05 06:10:07;;;;;;;20.58;10.98;;;;;;;6.54;48.37;93189.50;4994455;28;20057;-75
2022/01/05 06:12:32;;;;;;;23.30;10.48;;;;;;;6.49;48.46;93188.84;5013054;28;20037;-74
2022/01/05 06:14:58;;;;;;;24.75;11.75;;;;;;;6.50;48.71;93201.78;5023715;28;20128;-74
2022/01/05 06:17:23;;;;;;;29.70;12.63;;;;;;;6.36;48.67;93198.41;5004591;28;20536;-75
2022/01/05 06:19:49;;;;;;;18.42;10.88;;;;;;;6.61;48.48;93207.56;5024638;28;20408;-75
2022/01/05 06:22:14;;;;;;;18.20;10.13;;;;;;;6.64;48.68;93218.31;5014656;28;20053;-73
2022/01/05 06:24:40;;;;;;;16.08;9.95;;;;;;;6.41;48.82;93196.41;5012461;28;20207;-75
2022/01/05 06:27:09;;;;;;;15.73;9.10;;;;;;;6.57;48.98;93233.81;5012810;28;20771;-73
2022/01/05 06:29:36;;;;;;;16.80;9.00;;;;;;;6.36;48.89;93201.06;5015340;28;20037;-75
2022/01/05 06:32:06;;;;;;;13.13;9.02;;;;;;;6.35;49.55;93215.34;5016502;28;20370;-75
2022/01/05 06:34:37;;;;;;;17.63;9.48;;;;;;;6.42;49.67;93232.31;5017257;28;20087;-73
2022/01/05 06:37:02;;;;;;;14.57;8.07;;;;;;;6.32;50.39;93223.84;5004088;28;20037;-74
2022/01/05 06:39:28;;;;;;;18.95;8.65;;;;;;;6.52;49.89;93226.00;4999671;28;20218;-75
2022/01/05 06:41:53;;;;;;;12.73;9.07;;;;;;;6.71;49.47;93228.44;5007750;28;20041;-75
2022/01/05 06:44:23;;;;;;;15.50;9.50;;;;;;;6.66;49.58;93224.06;5005790;28;20370;-72
2022/01/05 06:46:49;;;;;;;14.75;8.82;;;;;;;6.52;50.00;93231.28;5001856;28;20022;-74
2022/01/05 06:49:14;;;;;;;18.65;10.23;;;;;;;6.60;49.78;93225.31;5015026;28;20052;-75
2022/01/05 06:51:40;;;;;;;19.08;9.73;;;;;;;6.85;49.52;93235.22;5014066;28;20594;-75
2022/01/05 06:54:08;;;;;;;21.48;10.02;;;;;;;6.61;50.18;93244.53;5016183;28;20072;-72
2022/01/05 06:56:34;;;;;;;16.85;9.05;;;;;;;6.70;49.80;93232.19;5009363;28;20041;-75
2022/01/05 06:58:59;;;;;;;15.95;9.60;;;;;;;6.77;50.02;93221.97;5020386;28;20359;-75
2022/01/05 07:01:30;;;;;;;16.92;10.93;;;;;;;6.87;49.63;93229.63;5011045;28;20482;-73
2022/01/05 07:03:56;;;;;;;19.05;10.55;;;;;;;6.89;49.69;93235.41;5007872;28;20037;-75
2022/01/05 07:06:24;;;;;;;20.85;9.88;;;;;;;6.96;49.55;93232.31;5012002;28;20512;-73
2022/01/05 07:08:49;;;;;;;17.52;8.90;;;;;;;7.06;49.36;93224.91;5018796;28;20418;-75
2022/01/05 07:11:14;;;;;;;17.38;9.45;;;;;;;6.99;49.40;93213.22;5012162;28;20031;-74
2022/01/05 07:13:40;;;;;;;20.23;9.55;;;;;;;7.07;49.14;93210.59;5013906;28;20510;-75
2022/01/05 07:16:05;;;;;;;21.02;10.90;;;;;;;7.24;49.30;93225.75;5015501;28;20451;-74
2022/01/05 07:18:30;;;;;;;22.77;10.85;;;;;;;7.18;48.97;93217.19;5018016;28;20510;-73
2022/01/05 07:20:56;;;;;;;22.58;9.95;;;;;;;7.12;49.16;93209.69;5022983;28;20056;-76
2022/01/05 07:23:21;;;;;;;23.58;11.20;;;;;;;6.50;50.38;93217.63;5014032;28;22204;-75
2022/01/05 07:25:47;;;;;;;16.35;9.70;;;;;;;6.34;51.06;93229.63;5006311;28;20120;-75
2022/01/05 07:28:12;;;;;;;22.20;11.23;;;;;;;6.17;52.28;93237.41;5004557;28;20153;-74
2022/01/05 07:30:38;;;;;;;22.13;12.77;;;;;;;6.20;52.00;93215.69;5018558;28;20045;-75
2022/01/05 07:33:03;;;;;;;25.42;12.95;;;;;;;6.62;51.50;93232.91;5012355;28;20491;-74
2022/01/05 07:35:28;;;;;;;24.65;14.25;;;;;;;5.98;52.87;93201.38;5007440;28;20037;-75
2022/01/05 07:37:54;;;;;;;28.35;14.85;;;;;;;6.41;52.50;93233.41;5017930;28;20409;-74
2022/01/05 07:40:20;;;;;;;27.52;14.00;;;;;;;6.47;52.42;93226.13;5013362;28;20125;-74
2022/01/05 07:42:52;;;;;;;25.98;13.52;;;;;;;6.20;52.96;93236.81;5013992;28;21298;-73
2022/01/05 07:45:17;;;;;;;23.35;14.68;;;;;;;6.44;52.77;93224.09;5022093;28;20040;-74
2022/01/05 07:47:43;;;;;;;31.23;17.67;;;;;;;6.02;53.99;93244.56;5017629;28;20049;-74
2022/01/05 07:50:14;;;;;;;37.70;17.65;;;;;;;6.52;52.93;93235.78;5010370;28;20083;-75
2022/01/05 07:52:44;;;;;;;27.98;16.23;;;;;;;6.59;52.00;93231.66;5019956;28;20029;-75
2022/01/05 07:55:10;;;;;;;41.83;18.70;;;;;;;5.66;54.41;93230.59;5012280;28;20041;-74
2022/01/05 07:57:36;;;;;;;28.00;17.75;;;;;;;5.93;53.87;93212.03;5015070;28;20512;-75
2022/01/05 08:00:04;;;;;;;36.22;15.70;;;;;;;6.20;53.78;93234.97;5020094;28;20120;-74
2022/01/05 08:02:30;;;;;;;29.75;17.38;;;;;;;6.17;53.53;93226.84;5009283;28;20044;-74
2022/01/05 08:04:55;;;;;;;29.50;15.02;;;;;;;6.09;54.23;93254.72;5016716;28;20060;-74
2022/01/05 08:07:20;;;;;;;24.50;13.32;;;;;;;5.67;54.11;93244.56;5024965;28;20041;-74
2022/01/05 08:09:46;;;;;;;24.45;14.20;;;;;;;5.68;54.73;93243.47;5001739;28;20049;-75
2022/01/05 08:12:11;;;;;;;21.27;12.90;;;;;;;5.89;53.66;93244.59;5019168;28;20048;-75
2022/01/05 08:14:37;;;;;;;21.73;14.05;;;;;;;6.29;52.70;93222.59;5021433;28;20395;-74
2022/01/05 08:17:02;;;;;;;23.58;14.50;;;;;;;6.39;53.10;93248.78;5007711;28;20159;-74
2022/01/05 08:19:28;;;;;;;25.73;13.80;;;;;;;7.02;51.58;93260.19;5018584;28;20424;-74
2022/01/05 08:21:53;;;;;;;25.65;13.25;;;;;;;7.14;51.05;93244.53;5023388;28;20102;-75
2022/01/05 08:24:18;;;;;;;28.98;15.40;;;;;;;6.27;52.10;93187.78;5022017;28;20136;-75
2022/01/05 08:26:44;;;;;;;32.08;15.82;;;;;;;6.02;53.28;93229.81;5023431;28;20045;-74
2022/01/05 08:29:09;;;;;;;30.67;16.35;;;;;;;5.94;53.91;93236.56;5007268;28;20029;-74
2022/01/05 08:31:34;;;;;;;29.42;14.40;;;;;;;5.89;54.40;93229.56;5021850;28;20124;-74
2022/01/05 08:34:00;;;;;;;28.83;15.60;;;;;;;6.14;53.95;93232.69;5021795;28;20136;-75
2022/01/05 08:36:26;;;;;;;27.98;15.32;;;;;;;5.83;54.55;93235.22;5012896;28;20044;-75
2022/01/05 08:38:52;;;;;;;26.67;14.27;;;;;;;6.02;54.68;93243.03;5012229;28;20041;-74
2022/01/05 08:41:17;;;;;;;26.90;14.20;;;;;;;5.88;54.54;93224.56;5016413;28;20040;-74
2022/01/05 08:43:42;;;;;;;26.92;13.80;;;;;;;5.68;55.10;93207.31;5014762;28;21450;-75
2022/01/05 08:46:08;;;;;;;24.17;13.57;;;;;;;6.23;54.13;93223.00;5018308;28;20086;-75
2022/01/05 08:48:33;;;;;;;21.45;11.52;;;;;;;5.91;54.73;93216.84;5022734;28;20424;-74
2022/01/05 08:50:59;;;;;;;21.67;12.32;;;;;;;5.80;54.93;93252.44;5020280;28;20041;-74
2022/01/05 08:53:25;;;;;;;22.73;9.88;;;;;;;5.46;55.41;93225.72;5000475;28;20352;-75
2022/01/05 08:55:51;;;;;;;18.60;10.10;;;;;;;5.75;55.49;93244.63;5022244;28;20029;-74
2022/01/05 08:58:18;;;;;;;16.65;8.35;;;;;;;5.94;54.95;93234.72;5022653;28;20045;-75
2022/01/05 09:00:44;;;;;;;16.77;9.68;;;;;;;5.64;55.81;93237.22;5018208;28;20137;-74
2022/01/05 09:03:13;;;;;;;13.57;7.65;;;;;;;5.71;55.01;93242.88;5021258;28;20041;-75
2022/01/05 09:05:39;;;;;;;15.55;9.18;;;;;;;6.22;53.78;93221.44;5011608;28;20228;-74
2022/01/05 09:08:05;;;;;;;13.18;9.15;;;;;;;5.98;54.34;93240.19;5026389;28;20096;-74
2022/01/05 09:10:36;;;;;;;14.02;8.05;;;;;;;5.73;55.04;93233.59;5012754;28;20029;-75
2022/01/05 09:13:05;;;;;;;16.40;9.00;;;;;;;5.68;55.71;93238.19;5008321;28;20791;-75
2022/01/05 09:15:33;;;;;;;17.75;9.68;;;;;;;5.72;55.96;93226.78;5002859;28;20502;-74
2022/01/05 09:17:59;;;;;;;20.25;10.10;;;;;;;5.79;55.66;93221.06;5014856;28;20751;-74
2022/01/05 09:20:24;;;;;;;20.05;10.57;;;;;;;5.68;56.15;93212.59;5017286;28;20050;-74
2022/01/05 09:22:50;;;;;;;20.30;10.40;;;;;;;5.70;55.63;93210.44;5015753;28;20590;-74
2022/01/05 09:25:18;;;;;;;25.75;11.10;;;;;;;5.59;55.65;93193.25;5015815;28;20041;-74
2022/01/05 09:27:44;;;;;;;18.02;10.43;;;;;;;5.52;55.86;93219.28;5002122;28;20832;-74
2022/01/05 09:30:12;;;;;;;18.48;9.68;;;;;;;5.70;55.64;93210.44;5020887;28;20056;-75
2022/01/05 09:32:38;;;;;;;17.85;10.50;;;;;;;5.79;55.83;93200.75;5019215;28;20060;-75
2022/01/05 09:35:06;;;;;;;20.65;10.57;;;;;;;5.65;55.17;93188.66;5019391;28;20144;-74
2022/01/05 09:37:35;;;;;;;20.00;11.27;;;;;;;5.85;55.13;93185.59;5017955;28;20063;-75
2022/01/05 09:42:45;;;;;;;18.70;9.35;;;;;;;5.62;55.96;93182.13;5022453;28;20587;-74
2022/01/05 09:45:23;;;;;;;19.77;9.52;;;;;;;5.51;55.82;93167.59;5017607;28;20037;-74
2022/01/05 09:48:19;;;;;;;17.75;9.70;;;;;;;5.75;56.12;93180.53;5022985;28;20037;-74
2022/01/05 09:51:05;;;;;;;15.57;8.98;;;;;;;5.56;55.51;93167.50;5016347;28;20041;-74
2022/01/05 09:53:31;;;;;;;14.23;9.05;;;;;;;5.64;55.35;93174.69;5007654;28;20057;-75
2022/01/05 09:55:58;;;;;;;16.27;8.88;;;;;;;5.78;55.14;93141.13;5014202;28;20155;-74
2022/01/05 09:58:24;;;;;;;14.20;8.27;;;;;;;5.85;54.51;93165.25;4995975;28;20517;-74
2022/01/05 10:00:50;;;;;;;12.35;7.13;;;;;;;5.80;54.99;93173.28;5020784;28;20535;-74
2022/01/05 10:03:18;;;;;;;11.00;7.43;;;;;;;5.63;54.83;93146.75;5016240;28;20037;-75
2022/01/05 10:05:45;;;;;;;19.40;8.30;;;;;;;5.92;54.74;93160.31;5016416;28;20646;-74
2022/01/05 10:08:11;;;;;;;16.88;6.85;;;;;;;5.93;54.43;93156.63;5021745;28;20440;-73
2022/01/05 10:10:41;;;;;;;13.77;7.18;;;;;;;5.75;54.85;93149.66;5012462;28;20021;-73
2022/01/05 10:13:06;;;;;;;23.20;8.75;;;;;;;5.75;55.42;93149.66;5020795;28;21337;-74
2022/01/05 10:15:33;;;;;;;14.43;7.97;;;;;;;5.77;54.96;93152.78;5015840;28;20041;-75
2022/01/05 10:18:09;;;;;;;15.10;7.93;;;;;;;5.64;55.28;93142.25;4995724;28;20033;-72
2022/01/05 10:20:34;;;;;;;14.27;6.93;;;;;;;5.74;54.87;93136.75;5024433;28;20107;-75
2022/01/05 10:23:00;;;;;;;20.63;7.68;;;;;;;5.84;55.10;93131.25;5011543;28;20051;-75
2022/01/05 10:25:25;;;;;;;17.42;8.73;;;;;;;5.97;54.99;93138.31;5013191;28;20468;-75
2022/01/05 10:28:03;;;;;;;12.90;7.38;;;;;;;6.14;54.49;93125.25;5011307;28;20140;-74
2022/01/05 10:30:45;;;;;;;9.75;6.90;;;;;;;6.19;54.22;93129.66;5021951;28;20511;-74
2022/01/05 10:33:11;;;;;;;11.70;7.32;;;;;;;6.11;54.01;93117.94;5000713;28;20049;-75
2022/01/05 10:35:37;;;;;;;15.45;7.47;;;;;;;6.26;53.86;93122.09;5008219;28;20063;-74
2022/01/05 10:38:15;;;;;;;13.18;8.00;;;;;;;6.44;53.58;93113.16;5013085;28;20044;-75
2022/01/05 10:40:42;;;;;;;10.85;6.95;;;;;;;6.38;52.95;93082.69;5005659;28;20513;-75
2022/01/05 10:43:10;;;;;;;15.27;7.78;;;;;;;6.61;53.33;93091.31;5016858;28;20037;-75
2022/01/05 10:45:40;;;;;;;16.45;7.00;;;;;;;6.84;52.55;93106.81;5020585;28;20033;-74
2022/01/05 10:48:09;;;;;;;13.80;7.32;;;;;;;6.95;52.00;93095.94;5023609;28;20041;-75
2022/01/05 10:50:39;;;;;;;15.07;6.70;;;;;;;7.06;51.99;93092.69;5010952;28;20378;-75
2022/01/05 10:53:06;;;;;;;10.55;6.53;;;;;;;6.91;51.35;93071.19;5018686;28;20029;-75
2022/01/05 10:55:39;;;;;;;11.23;5.97;;;;;;;7.09;50.89;93096.59;5013161;28;20036;-75
2022/01/05 10:58:07;;;;;;;10.98;5.40;;;;;;;7.38;50.90;93088.88;5001300;28;21008;-75
2022/01/05 11:00:46;;;;;;;12.05;6.60;;;;;;;7.62;52.57;93083.91;5012868;28;20308;-74
2022/01/05 11:03:39;;;;;;;11.70;6.28;;;;;;;7.63;51.17;93088.09;5011056;28;20047;-75
2022/01/05 11:06:17;;;;;;;10.77;5.43;;;;;;;7.46;49.09;93071.44;5018897;28;20303;-75
2022/01/05 11:08:50;;;;;;;8.95;4.45;;;;;;;7.46;49.36;93079.38;5022081;28;20041;-75
2022/01/05 11:11:30;;;;;;;11.63;5.75;;;;;;;7.28;49.38;93052.16;5016053;28;20021;-75
2022/01/05 11:13:55;;;;;;;9.15;5.05;;;;;;;7.52;49.17;93067.56;5023788;28;20029;-75
2022/01/05 11:16:31;;;;;;;8.27;5.00;;;;;;;7.50;49.33;93059.13;5020914;28;20147;-73
2022/01/05 11:19:17;;;;;;;12.05;7.35;;;;;;;7.61;49.86;93070.97;5023834;28;20029;-74
2022/01/05 11:21:57;;;;;;;8.45;6.00;;;;;;;7.70;49.46;93067.22;5022000;28;20688;-75
2022/01/05 11:24:23;;;;;;;8.65;4.40;;;;;;;7.76;49.18;93043.28;4999732;28;20052;-75
2022/01/05 11:26:49;;;;;;;9.43;4.53;;;;;;;7.70;49.64;93056.66;5015047;28;20048;-74
2022/01/05 11:29:15;;;;;;;8.23;5.30;;;;;;;7.54;49.48;93044.97;5018965;28;20040;-74
2022/01/05 11:31:41;;;;;;;10.05;5.80;;;;;;;7.87;49.08;93049.81;5020584;28;20580;-74
2022/01/05 11:34:06;;;;;;;13.63;6.18;;;;;;;8.00;48.78;93020.50;5005916;28;20045;-74
2022/01/05 11:36:32;;;;;;;11.10;6.00;;;;;;;8.00;48.55;93019.72;5022226;28;20040;-74